KHFF/HFF METAR and TAF weather

Enter ICAO airport designator
Station Type Date Time Source
KHFF METAR 2021/08/01 17:22 UTC NOAA

KHFF 011722Z AUTO 28005KT 10SM FEW041 SCT070 SCT170 34/23 A2980 RMK AO2 LTG DSNT NE SLP090 58008 $


Station Type Date Time Source
KHFF Decoded METAR 2021/08/01 17:22 UTC NOAA

Mackall U. S. Army Airfield, NC, United States (KHFF) 35-02N 079-30W
Aug 01, 2021 - 01:22 PM EDT / 2021.08.01 1722 UTC
Wind: from the W (280 degrees) at 6 MPH (5 KT):0
Visibility: 10 mile(s):0
Sky conditions: partly cloudy
Weather: Lightning observed
Temperature: 93 F (34 C)
Heat index: 101.8 F (38.8 C):1
Dew Point: 73 F (23 C)
Relative Humidity: 52%
Pressure (altimeter): 29.8 in. Hg (1009 hPa)
Pressure tendency: 0.02 inches (0.8 hPa) lower than three hours ago
ob: KHFF 011722Z AUTO 28005KT 10SM FEW041 SCT070 SCT170 34/23 A2980 RMK AO2 LTG DSNT NE SLP090 58008
cycle: 17

Station Type Date Time Source
KHFF TAF UTC NOAA

Error!

Example: see airport list